sensor_id;sensor_type;location;lat;lon;timestamp;P1;durP1;ratioP1;P2;durP2;ratioP2
12869;SDS011;6503;48.572;13.460;2023-03-30T00:02:44;17.58;;;12.93;;
12869;SDS011;6503;48.572;13.460;2023-03-30T00:05:16;19.17;;;13.65;;
12869;SDS011;6503;48.572;13.460;2023-03-30T00:07:45;19.20;;;13.05;;
12869;SDS011;6503;48.572;13.460;2023-03-30T00:10:14;23.83;;;13.63;;
12869;SDS011;6503;48.572;13.460;2023-03-30T00:12:43;18.98;;;13.82;;
12869;SDS011;6503;48.572;13.460;2023-03-30T00:15:15;18.88;;;13.77;;
12869;SDS011;6503;48.572;13.460;2023-03-30T00:17:53;19.98;;;13.88;;
12869;SDS011;6503;48.572;13.460;2023-03-30T00:20:23;20.02;;;14.02;;
12869;SDS011;6503;48.572;13.460;2023-03-30T00:22:56;21.90;;;14.52;;
12869;SDS011;6503;48.572;13.460;2023-03-30T00:25:24;22.80;;;14.25;;
12869;SDS011;6503;48.572;13.460;2023-03-30T00:27:52;22.65;;;14.27;;
12869;SDS011;6503;48.572;13.460;2023-03-30T00:30:20;23.33;;;15.68;;
12869;SDS011;6503;48.572;13.460;2023-03-30T00:32:53;19.40;;;14.23;;
12869;SDS011;6503;48.572;13.460;2023-03-30T00:35:21;20.38;;;13.95;;
12869;SDS011;6503;48.572;13.460;2023-03-30T00:37:50;26.17;;;14.90;;
12869;SDS011;6503;48.572;13.460;2023-03-30T00:40:20;22.27;;;14.20;;
12869;SDS011;6503;48.572;13.460;2023-03-30T00:42:49;21.08;;;13.95;;
12869;SDS011;6503;48.572;13.460;2023-03-30T00:45:25;22.27;;;13.93;;
12869;SDS011;6503;48.572;13.460;2023-03-30T00:50:29;20.50;;;13.95;;
12869;SDS011;6503;48.572;13.460;2023-03-30T00:53:01;22.48;;;14.57;;
12869;SDS011;6503;48.572;13.460;2023-03-30T00:55:31;20.27;;;14.23;;
12869;SDS011;6503;48.572;13.460;2023-03-30T00:58:02;22.30;;;14.52;;
12869;SDS011;6503;48.572;13.460;2023-03-30T01:00:34;22.80;;;15.02;;
12869;SDS011;6503;48.572;13.460;2023-03-30T01:03:05;20.38;;;14.15;;
12869;SDS011;6503;48.572;13.460;2023-03-30T01:05:40;24.92;;;15.63;;
12869;SDS011;6503;48.572;13.460;2023-03-30T01:08:19;23.98;;;14.48;;
12869;SDS011;6503;48.572;13.460;2023-03-30T01:10:51;19.55;;;14.02;;
12869;SDS011;6503;48.572;13.460;2023-03-30T01:13:20;23.70;;;15.70;;
12869;SDS011;6503;48.572;13.460;2023-03-30T01:18:23;20.73;;;14.00;;
12869;SDS011;6503;48.572;13.460;2023-03-30T01:21:03;21.08;;;14.57;;
12869;SDS011;6503;48.572;13.460;2023-03-30T01:26:41;21.88;;;15.13;;
12869;SDS011;6503;48.572;13.460;2023-03-30T01:29:13;24.90;;;15.45;;
12869;SDS011;6503;48.572;13.460;2023-03-30T01:32:02;23.55;;;15.45;;
12869;SDS011;6503;48.572;13.460;2023-03-30T01:34:38;22.90;;;15.13;;
12869;SDS011;6503;48.572;13.460;2023-03-30T01:37:22;20.95;;;14.85;;
12869;SDS011;6503;48.572;13.460;2023-03-30T01:39:56;21.40;;;14.43;;
12869;SDS011;6503;48.572;13.460;2023-03-30T01:42:34;23.35;;;15.80;;
12869;SDS011;6503;48.572;13.460;2023-03-30T01:45:05;24.73;;;15.32;;
12869;SDS011;6503;48.572;13.460;2023-03-30T01:47:36;22.08;;;16.25;;
12869;SDS011;6503;48.572;13.460;2023-03-30T01:50:05;23.55;;;16.10;;
12869;SDS011;6503;48.572;13.460;2023-03-30T01:52:36;24.50;;;15.30;;
12869;SDS011;6503;48.572;13.460;2023-03-30T01:55:09;22.80;;;15.80;;
12869;SDS011;6503;48.572;13.460;2023-03-30T01:57:40;20.10;;;14.65;;
12869;SDS011;6503;48.572;13.460;2023-03-30T02:00:10;23.65;;;15.73;;
12869;SDS011;6503;48.572;13.460;2023-03-30T02:02:40;25.15;;;15.80;;
12869;SDS011;6503;48.572;13.460;2023-03-30T02:05:08;23.73;;;15.82;;
12869;SDS011;6503;48.572;13.460;2023-03-30T02:07:37;27.70;;;16.10;;
12869;SDS011;6503;48.572;13.460;2023-03-30T02:10:06;22.48;;;16.10;;
12869;SDS011;6503;48.572;13.460;2023-03-30T02:12:35;24.73;;;16.25;;
12869;SDS011;6503;48.572;13.460;2023-03-30T02:15:05;28.35;;;16.67;;
12869;SDS011;6503;48.572;13.460;2023-03-30T02:17:34;26.35;;;17.48;;
12869;SDS011;6503;48.572;13.460;2023-03-30T02:20:03;24.42;;;16.58;;
12869;SDS011;6503;48.572;13.460;2023-03-30T02:22:32;28.20;;;17.63;;
12869;SDS011;6503;48.572;13.460;2023-03-30T02:25:00;25.48;;;16.48;;
12869;SDS011;6503;48.572;13.460;2023-03-30T02:27:27;24.52;;;15.95;;
12869;SDS011;6503;48.572;13.460;2023-03-30T02:29:59;25.33;;;16.92;;
12869;SDS011;6503;48.572;13.460;2023-03-30T02:32:29;23.55;;;16.08;;
12869;SDS011;6503;48.572;13.460;2023-03-30T02:37:32;23.58;;;15.18;;
12869;SDS011;6503;48.572;13.460;2023-03-30T02:40:07;24.23;;;16.10;;
12869;SDS011;6503;48.572;13.460;2023-03-30T02:42:41;27.73;;;16.50;;
12869;SDS011;6503;48.572;13.460;2023-03-30T02:45:17;24.38;;;16.52;;
12869;SDS011;6503;48.572;13.460;2023-03-30T02:47:51;22.48;;;15.65;;
12869;SDS011;6503;48.572;13.460;2023-03-30T02:50:22;23.13;;;15.60;;
12869;SDS011;6503;48.572;13.460;2023-03-30T02:52:53;23.75;;;15.82;;
12869;SDS011;6503;48.572;13.460;2023-03-30T02:55:23;25.20;;;16.83;;
12869;SDS011;6503;48.572;13.460;2023-03-30T03:03:15;23.15;;;15.70;;
12869;SDS011;6503;48.572;13.460;2023-03-30T03:05:43;26.25;;;16.88;;
12869;SDS011;6503;48.572;13.460;2023-03-30T03:08:14;23.77;;;15.68;;
12869;SDS011;6503;48.572;13.460;2023-03-30T03:10:44;24.70;;;15.68;;
12869;SDS011;6503;48.572;13.460;2023-03-30T03:13:11;25.15;;;15.70;;
12869;SDS011;6503;48.572;13.460;2023-03-30T03:15:40;23.35;;;16.13;;
12869;SDS011;6503;48.572;13.460;2023-03-30T03:18:09;22.40;;;14.98;;
12869;SDS011;6503;48.572;13.460;2023-03-30T03:20:38;24.92;;;16.05;;
12869;SDS011;6503;48.572;13.460;2023-03-30T03:23:05;23.30;;;15.82;;
12869;SDS011;6503;48.572;13.460;2023-03-30T03:25:33;24.83;;;15.75;;
12869;SDS011;6503;48.572;13.460;2023-03-30T03:28:00;25.42;;;16.83;;
12869;SDS011;6503;48.572;13.460;2023-03-30T03:30:28;26.55;;;16.75;;
12869;SDS011;6503;48.572;13.460;2023-03-30T03:32:55;26.48;;;16.67;;
12869;SDS011;6503;48.572;13.460;2023-03-30T03:35:23;25.17;;;16.90;;
12869;SDS011;6503;48.572;13.460;2023-03-30T03:37:52;27.90;;;16.48;;
12869;SDS011;6503;48.572;13.460;2023-03-30T03:42:48;25.17;;;15.80;;
12869;SDS011;6503;48.572;13.460;2023-03-30T03:45:16;26.73;;;16.95;;
12869;SDS011;6503;48.572;13.460;2023-03-30T03:47:43;28.88;;;17.23;;
12869;SDS011;6503;48.572;13.460;2023-03-30T03:50:10;31.85;;;18.42;;
12869;SDS011;6503;48.572;13.460;2023-03-30T03:52:38;25.35;;;16.35;;
12869;SDS011;6503;48.572;13.460;2023-03-30T03:55:08;25.45;;;15.50;;
12869;SDS011;6503;48.572;13.460;2023-03-30T03:57:35;23.20;;;15.13;;
12869;SDS011;6503;48.572;13.460;2023-03-30T04:00:03;24.77;;;17.42;;
12869;SDS011;6503;48.572;13.460;2023-03-30T04:02:39;23.70;;;17.10;;
12869;SDS011;6503;48.572;13.460;2023-03-30T04:05:06;22.75;;;16.13;;
12869;SDS011;6503;48.572;13.460;2023-03-30T04:07:34;28.00;;;17.08;;
12869;SDS011;6503;48.572;13.460;2023-03-30T04:10:01;24.83;;;17.15;;
12869;SDS011;6503;48.572;13.460;2023-03-30T04:12:30;27.35;;;17.10;;
12869;SDS011;6503;48.572;13.460;2023-03-30T04:14:59;24.27;;;16.30;;
12869;SDS011;6503;48.572;13.460;2023-03-30T04:17:26;30.88;;;18.80;;
12869;SDS011;6503;48.572;13.460;2023-03-30T04:19:54;30.10;;;18.02;;
12869;SDS011;6503;48.572;13.460;2023-03-30T04:22:21;29.60;;;18.58;;
12869;SDS011;6503;48.572;13.460;2023-03-30T04:24:49;27.88;;;17.77;;
12869;SDS011;6503;48.572;13.460;2023-03-30T04:27:17;27.15;;;18.20;;
12869;SDS011;6503;48.572;13.460;2023-03-30T04:29:45;30.60;;;18.63;;
12869;SDS011;6503;48.572;13.460;2023-03-30T04:32:13;29.20;;;18.40;;
12869;SDS011;6503;48.572;13.460;2023-03-30T04:34:44;27.55;;;16.73;;
12869;SDS011;6503;48.572;13.460;2023-03-30T04:37:12;23.02;;;16.25;;
12869;SDS011;6503;48.572;13.460;2023-03-30T04:39:46;27.20;;;17.55;;
12869;SDS011;6503;48.572;13.460;2023-03-30T04:42:14;27.77;;;17.50;;
12869;SDS011;6503;48.572;13.460;2023-03-30T04:44:45;31.17;;;18.83;;
12869;SDS011;6503;48.572;13.460;2023-03-30T04:47:12;30.83;;;19.17;;
12869;SDS011;6503;48.572;13.460;2023-03-30T04:49:40;27.67;;;17.70;;
12869;SDS011;6503;48.572;13.460;2023-03-30T04:52:08;27.35;;;17.15;;
12869;SDS011;6503;48.572;13.460;2023-03-30T04:54:36;26.90;;;17.60;;
12869;SDS011;6503;48.572;13.460;2023-03-30T04:57:03;25.77;;;17.77;;
12869;SDS011;6503;48.572;13.460;2023-03-30T04:59:31;25.17;;;17.27;;
12869;SDS011;6503;48.572;13.460;2023-03-30T05:02:00;28.00;;;17.83;;
12869;SDS011;6503;48.572;13.460;2023-03-30T05:04:28;23.52;;;16.88;;
12869;SDS011;6503;48.572;13.460;2023-03-30T05:06:55;25.35;;;16.70;;
12869;SDS011;6503;48.572;13.460;2023-03-30T05:09:23;25.63;;;16.58;;
12869;SDS011;6503;48.572;13.460;2023-03-30T05:11:52;25.10;;;15.98;;
12869;SDS011;6503;48.572;13.460;2023-03-30T05:14:20;27.02;;;17.25;;
12869;SDS011;6503;48.572;13.460;2023-03-30T05:16:55;23.88;;;16.80;;
12869;SDS011;6503;48.572;13.460;2023-03-30T05:19:27;28.48;;;18.08;;
12869;SDS011;6503;48.572;13.460;2023-03-30T05:21:56;34.92;;;18.80;;
12869;SDS011;6503;48.572;13.460;2023-03-30T05:24:23;32.10;;;19.20;;
12869;SDS011;6503;48.572;13.460;2023-03-30T05:26:51;34.40;;;19.63;;
12869;SDS011;6503;48.572;13.460;2023-03-30T05:29:18;34.53;;;20.42;;
12869;SDS011;6503;48.572;13.460;2023-03-30T05:31:45;31.65;;;19.45;;
12869;SDS011;6503;48.572;13.460;2023-03-30T05:34:13;31.05;;;19.10;;
12869;SDS011;6503;48.572;13.460;2023-03-30T05:36:43;36.15;;;22.15;;
12869;SDS011;6503;48.572;13.460;2023-03-30T05:39:11;31.88;;;20.23;;
12869;SDS011;6503;48.572;13.460;2023-03-30T05:41:40;32.30;;;20.02;;
12869;SDS011;6503;48.572;13.460;2023-03-30T05:44:09;29.73;;;19.48;;
12869;SDS011;6503;48.572;13.460;2023-03-30T05:46:38;31.92;;;19.13;;
12869;SDS011;6503;48.572;13.460;2023-03-30T05:49:09;28.98;;;18.75;;
12869;SDS011;6503;48.572;13.460;2023-03-30T05:51:39;34.30;;;20.52;;
12869;SDS011;6503;48.572;13.460;2023-03-30T05:54:12;30.95;;;19.13;;
12869;SDS011;6503;48.572;13.460;2023-03-30T05:58:03;28.98;;;18.88;;
12869;SDS011;6503;48.572;13.460;2023-03-30T05:59:50;26.17;;;17.38;;
12869;SDS011;6503;48.572;13.460;2023-03-30T06:05:01;32.70;;;20.13;;
12869;SDS011;6503;48.572;13.460;2023-03-30T06:07:35;31.48;;;19.88;;
12869;SDS011;6503;48.572;13.460;2023-03-30T06:10:09;34.70;;;21.50;;
12869;SDS011;6503;48.572;13.460;2023-03-30T06:12:39;31.27;;;19.80;;
12869;SDS011;6503;48.572;13.460;2023-03-30T06:17:58;30.25;;;18.70;;
12869;SDS011;6503;48.572;13.460;2023-03-30T06:20:33;32.17;;;20.15;;
12869;SDS011;6503;48.572;13.460;2023-03-30T06:23:00;34.30;;;20.80;;
12869;SDS011;6503;48.572;13.460;2023-03-30T06:25:30;34.17;;;22.20;;
12869;SDS011;6503;48.572;13.460;2023-03-30T06:27:59;32.38;;;21.13;;
12869;SDS011;6503;48.572;13.460;2023-03-30T06:30:29;32.72;;;20.77;;
12869;SDS011;6503;48.572;13.460;2023-03-30T06:35:27;30.30;;;19.23;;
12869;SDS011;6503;48.572;13.460;2023-03-30T06:38:05;31.00;;;20.13;;
12869;SDS011;6503;48.572;13.460;2023-03-30T06:40:35;32.67;;;20.80;;
12869;SDS011;6503;48.572;13.460;2023-03-30T06:43:03;31.30;;;19.95;;
12869;SDS011;6503;48.572;13.460;2023-03-30T06:45:30;31.05;;;18.83;;
12869;SDS011;6503;48.572;13.460;2023-03-30T06:47:58;33.17;;;20.42;;
12869;SDS011;6503;48.572;13.460;2023-03-30T06:50:29;32.88;;;19.73;;
12869;SDS011;6503;48.572;13.460;2023-03-30T06:55:28;27.58;;;19.25;;
12869;SDS011;6503;48.572;13.460;2023-03-30T06:57:57;34.33;;;20.92;;
12869;SDS011;6503;48.572;13.460;2023-03-30T07:00:25;32.38;;;20.00;;
12869;SDS011;6503;48.572;13.460;2023-03-30T07:02:54;30.85;;;19.25;;
12869;SDS011;6503;48.572;13.460;2023-03-30T07:05:21;32.72;;;19.85;;
12869;SDS011;6503;48.572;13.460;2023-03-30T07:07:49;33.67;;;20.30;;
12869;SDS011;6503;48.572;13.460;2023-03-30T07:10:19;30.17;;;19.52;;
12869;SDS011;6503;48.572;13.460;2023-03-30T07:12:46;31.63;;;18.77;;
12869;SDS011;6503;48.572;13.460;2023-03-30T07:15:16;28.17;;;17.90;;
12869;SDS011;6503;48.572;13.460;2023-03-30T07:17:44;29.80;;;18.93;;
12869;SDS011;6503;48.572;13.460;2023-03-30T07:20:11;28.98;;;19.77;;
12869;SDS011;6503;48.572;13.460;2023-03-30T07:22:41;33.03;;;20.60;;
12869;SDS011;6503;48.572;13.460;2023-03-30T07:25:08;32.90;;;19.83;;
12869;SDS011;6503;48.572;13.460;2023-03-30T07:27:36;32.08;;;18.65;;
12869;SDS011;6503;48.572;13.460;2023-03-30T07:30:06;32.55;;;21.13;;
12869;SDS011;6503;48.572;13.460;2023-03-30T07:32:48;36.97;;;21.15;;
12869;SDS011;6503;48.572;13.460;2023-03-30T07:35:22;34.45;;;20.33;;
12869;SDS011;6503;48.572;13.460;2023-03-30T07:37:50;38.00;;;21.98;;
12869;SDS011;6503;48.572;13.460;2023-03-30T07:40:22;36.65;;;21.10;;
12869;SDS011;6503;48.572;13.460;2023-03-30T07:42:50;32.42;;;21.17;;
12869;SDS011;6503;48.572;13.460;2023-03-30T07:45:18;39.83;;;22.55;;
12869;SDS011;6503;48.572;13.460;2023-03-30T07:47:45;37.40;;;22.70;;
12869;SDS011;6503;48.572;13.460;2023-03-30T07:50:17;34.78;;;21.42;;
12869;SDS011;6503;48.572;13.460;2023-03-30T07:52:46;36.92;;;21.17;;
12869;SDS011;6503;48.572;13.460;2023-03-30T07:55:23;40.53;;;23.30;;
12869;SDS011;6503;48.572;13.460;2023-03-30T07:57:55;40.60;;;24.02;;
12869;SDS011;6503;48.572;13.460;2023-03-30T08:00:28;40.75;;;24.90;;
12869;SDS011;6503;48.572;13.460;2023-03-30T08:02:56;37.45;;;23.50;;
12869;SDS011;6503;48.572;13.460;2023-03-30T08:05:29;39.55;;;24.38;;
12869;SDS011;6503;48.572;13.460;2023-03-30T08:08:00;35.45;;;24.33;;
12869;SDS011;6503;48.572;13.460;2023-03-30T08:10:39;41.42;;;24.05;;
12869;SDS011;6503;48.572;13.460;2023-03-30T08:13:09;41.92;;;24.75;;
12869;SDS011;6503;48.572;13.460;2023-03-30T08:15:37;38.40;;;24.60;;
12869;SDS011;6503;48.572;13.460;2023-03-30T08:18:07;41.97;;;26.35;;
12869;SDS011;6503;48.572;13.460;2023-03-30T08:20:39;41.72;;;25.35;;
12869;SDS011;6503;48.572;13.460;2023-03-30T08:23:15;40.42;;;24.10;;
12869;SDS011;6503;48.572;13.460;2023-03-30T08:25:43;42.50;;;25.75;;
12869;SDS011;6503;48.572;13.460;2023-03-30T08:28:15;47.22;;;28.42;;
12869;SDS011;6503;48.572;13.460;2023-03-30T08:30:53;43.67;;;25.13;;
12869;SDS011;6503;48.572;13.460;2023-03-30T08:33:28;36.75;;;22.83;;
12869;SDS011;6503;48.572;13.460;2023-03-30T08:44:57;37.88;;;24.25;;
12869;SDS011;6503;48.572;13.460;2023-03-30T08:47:30;39.13;;;24.40;;
12869;SDS011;6503;48.572;13.460;2023-03-30T08:50:00;40.15;;;26.48;;
12869;SDS011;6503;48.572;13.460;2023-03-30T08:52:31;41.15;;;25.40;;
12869;SDS011;6503;48.572;13.460;2023-03-30T08:55:03;40.08;;;24.60;;
12869;SDS011;6503;48.572;13.460;2023-03-30T08:57:33;38.80;;;25.15;;
12869;SDS011;6503;48.572;13.460;2023-03-30T09:02:44;35.80;;;23.38;;
12869;SDS011;6503;48.572;13.460;2023-03-30T09:05:14;36.22;;;22.70;;
12869;SDS011;6503;48.572;13.460;2023-03-30T09:07:47;38.50;;;23.95;;
12869;SDS011;6503;48.572;13.460;2023-03-30T09:10:19;33.70;;;21.90;;
12869;SDS011;6503;48.572;13.460;2023-03-30T09:12:47;32.45;;;20.65;;
12869;SDS011;6503;48.572;13.460;2023-03-30T09:15:18;34.83;;;21.45;;
12869;SDS011;6503;48.572;13.460;2023-03-30T09:20:56;35.42;;;21.38;;
12869;SDS011;6503;48.572;13.460;2023-03-30T09:23:29;36.72;;;22.15;;
12869;SDS011;6503;48.572;13.460;2023-03-30T09:26:04;38.05;;;23.10;;
12869;SDS011;6503;48.572;13.460;2023-03-30T09:28:42;36.72;;;22.60;;
12869;SDS011;6503;48.572;13.460;2023-03-30T09:31:36;34.85;;;22.73;;
12869;SDS011;6503;48.572;13.460;2023-03-30T09:34:15;41.17;;;23.83;;
12869;SDS011;6503;48.572;13.460;2023-03-30T09:37:03;41.97;;;25.23;;
12869;SDS011;6503;48.572;13.460;2023-03-30T09:39:33;38.28;;;24.83;;
12869;SDS011;6503;48.572;13.460;2023-03-30T09:42:06;38.58;;;24.52;;
12869;SDS011;6503;48.572;13.460;2023-03-30T09:44:35;35.38;;;23.58;;
12869;SDS011;6503;48.572;13.460;2023-03-30T09:47:12;36.30;;;23.33;;
12869;SDS011;6503;48.572;13.460;2023-03-30T09:49:45;37.20;;;23.83;;
12869;SDS011;6503;48.572;13.460;2023-03-30T09:52:26;35.40;;;23.08;;
12869;SDS011;6503;48.572;13.460;2023-03-30T09:55:15;33.55;;;20.73;;
12869;SDS011;6503;48.572;13.460;2023-03-30T09:57:51;33.83;;;20.02;;
12869;SDS011;6503;48.572;13.460;2023-03-30T10:00:24;32.33;;;21.15;;
12869;SDS011;6503;48.572;13.460;2023-03-30T10:02:57;33.65;;;21.33;;
12869;SDS011;6503;48.572;13.460;2023-03-30T10:05:26;29.42;;;19.73;;
12869;SDS011;6503;48.572;13.460;2023-03-30T10:11:12;32.78;;;20.65;;
12869;SDS011;6503;48.572;13.460;2023-03-30T10:13:42;29.48;;;18.42;;
12869;SDS011;6503;48.572;13.460;2023-03-30T10:16:16;28.95;;;18.67;;
12869;SDS011;6503;48.572;13.460;2023-03-30T10:18:53;29.85;;;17.40;;
12869;SDS011;6503;48.572;13.460;2023-03-30T10:21:22;31.00;;;19.55;;
12869;SDS011;6503;48.572;13.460;2023-03-30T10:23:58;34.25;;;21.15;;
12869;SDS011;6503;48.572;13.460;2023-03-30T10:29:28;33.00;;;22.23;;
12869;SDS011;6503;48.572;13.460;2023-03-30T10:32:07;31.92;;;23.17;;
12869;SDS011;6503;48.572;13.460;2023-03-30T10:34:44;31.75;;;21.77;;
12869;SDS011;6503;48.572;13.460;2023-03-30T10:37:19;31.55;;;21.17;;
12869;SDS011;6503;48.572;13.460;2023-03-30T10:40:17;35.08;;;20.45;;
12869;SDS011;6503;48.572;13.460;2023-03-30T10:43:11;30.20;;;19.52;;
12869;SDS011;6503;48.572;13.460;2023-03-30T10:54:50;27.83;;;18.85;;
12869;SDS011;6503;48.572;13.460;2023-03-30T10:57:21;33.83;;;22.20;;
12869;SDS011;6503;48.572;13.460;2023-03-30T11:00:11;36.95;;;23.08;;
12869;SDS011;6503;48.572;13.460;2023-03-30T11:03:06;21.30;;;15.50;;
12869;SDS011;6503;48.572;13.460;2023-03-30T11:06:02;22.55;;;14.07;;
12869;SDS011;6503;48.572;13.460;2023-03-30T11:08:32;24.10;;;14.27;;
12869;SDS011;6503;48.572;13.460;2023-03-30T11:11:12;21.38;;;13.93;;
12869;SDS011;6503;48.572;13.460;2023-03-30T11:13:43;25.30;;;15.35;;
12869;SDS011;6503;48.572;13.460;2023-03-30T11:16:15;21.05;;;13.07;;
12869;SDS011;6503;48.572;13.460;2023-03-30T11:18:46;24.10;;;15.18;;
12869;SDS011;6503;48.572;13.460;2023-03-30T11:21:18;26.10;;;15.70;;
12869;SDS011;6503;48.572;13.460;2023-03-30T11:23:50;23.65;;;15.07;;
12869;SDS011;6503;48.572;13.460;2023-03-30T11:26:34;27.40;;;14.65;;
12869;SDS011;6503;48.572;13.460;2023-03-30T11:29:08;19.73;;;13.38;;
12869;SDS011;6503;48.572;13.460;2023-03-30T11:31:48;23.95;;;13.50;;
12869;SDS011;6503;48.572;13.460;2023-03-30T11:34:25;20.58;;;15.00;;
12869;SDS011;6503;48.572;13.460;2023-03-30T11:36:55;24.25;;;14.50;;
12869;SDS011;6503;48.572;13.460;2023-03-30T11:39:26;27.30;;;14.43;;
12869;SDS011;6503;48.572;13.460;2023-03-30T11:41:58;33.53;;;14.85;;
12869;SDS011;6503;48.572;13.460;2023-03-30T11:44:28;22.15;;;13.73;;
12869;SDS011;6503;48.572;13.460;2023-03-30T11:46:58;21.75;;;12.07;;
12869;SDS011;6503;48.572;13.460;2023-03-30T11:49:33;23.00;;;11.63;;
12869;SDS011;6503;48.572;13.460;2023-03-30T11:52:17;17.35;;;10.13;;
12869;SDS011;6503;48.572;13.460;2023-03-30T11:54:54;19.63;;;9.15;;
12869;SDS011;6503;48.572;13.460;2023-03-30T11:57:31;16.33;;;8.07;;
12869;SDS011;6503;48.572;13.460;2023-03-30T12:00:02;16.27;;;7.72;;
12869;SDS011;6503;48.572;13.460;2023-03-30T12:05:18;12.82;;;6.10;;
12869;SDS011;6503;48.572;13.460;2023-03-30T12:07:49;11.95;;;5.97;;
12869;SDS011;6503;48.572;13.460;2023-03-30T12:10:22;15.98;;;6.85;;
12869;SDS011;6503;48.572;13.460;2023-03-30T12:12:52;12.13;;;5.68;;
12869;SDS011;6503;48.572;13.460;2023-03-30T12:15:26;9.90;;;5.80;;
12869;SDS011;6503;48.572;13.460;2023-03-30T12:17:58;14.85;;;5.78;;
12869;SDS011;6503;48.572;13.460;2023-03-30T12:20:33;12.68;;;5.15;;
12869;SDS011;6503;48.572;13.460;2023-03-30T12:23:03;13.73;;;6.07;;
12869;SDS011;6503;48.572;13.460;2023-03-30T12:25:46;11.82;;;5.68;;
12869;SDS011;6503;48.572;13.460;2023-03-30T12:31:09;15.02;;;6.35;;
12869;SDS011;6503;48.572;13.460;2023-03-30T12:33:48;16.20;;;6.57;;
12869;SDS011;6503;48.572;13.460;2023-03-30T12:36:21;12.25;;;7.55;;
12869;SDS011;6503;48.572;13.460;2023-03-30T12:38:58;13.60;;;7.10;;
12869;SDS011;6503;48.572;13.460;2023-03-30T12:41:37;20.85;;;7.82;;
12869;SDS011;6503;48.572;13.460;2023-03-30T12:44:27;16.15;;;7.78;;
12869;SDS011;6503;48.572;13.460;2023-03-30T12:47:16;15.55;;;8.27;;
12869;SDS011;6503;48.572;13.460;2023-03-30T12:50:05;17.30;;;7.80;;
12869;SDS011;6503;48.572;13.460;2023-03-30T12:52:37;19.73;;;8.05;;
12869;SDS011;6503;48.572;13.460;2023-03-30T12:55:26;16.02;;;8.43;;
12869;SDS011;6503;48.572;13.460;2023-03-30T12:58:21;18.55;;;9.90;;
12869;SDS011;6503;48.572;13.460;2023-03-30T13:00:58;14.85;;;7.93;;
12869;SDS011;6503;48.572;13.460;2023-03-30T13:03:39;17.83;;;7.90;;
12869;SDS011;6503;48.572;13.460;2023-03-30T13:06:17;17.25;;;7.95;;
12869;SDS011;6503;48.572;13.460;2023-03-30T13:08:46;18.10;;;8.50;;
12869;SDS011;6503;48.572;13.460;2023-03-30T13:11:21;18.00;;;9.07;;
12869;SDS011;6503;48.572;13.460;2023-03-30T13:13:54;17.02;;;8.05;;
12869;SDS011;6503;48.572;13.460;2023-03-30T13:19:18;17.45;;;7.97;;
12869;SDS011;6503;48.572;13.460;2023-03-30T13:21:46;19.48;;;9.07;;
12869;SDS011;6503;48.572;13.460;2023-03-30T13:24:23;13.85;;;8.13;;
12869;SDS011;6503;48.572;13.460;2023-03-30T13:26:52;17.95;;;8.60;;
12869;SDS011;6503;48.572;13.460;2023-03-30T13:29:23;16.60;;;9.35;;
12869;SDS011;6503;48.572;13.460;2023-03-30T13:32:01;16.13;;;8.50;;
12869;SDS011;6503;48.572;13.460;2023-03-30T13:34:34;19.13;;;9.90;;
12869;SDS011;6503;48.572;13.460;2023-03-30T13:37:06;22.15;;;9.88;;
12869;SDS011;6503;48.572;13.460;2023-03-30T13:39:38;22.05;;;10.60;;
12869;SDS011;6503;48.572;13.460;2023-03-30T13:42:31;18.33;;;10.10;;
12869;SDS011;6503;48.572;13.460;2023-03-30T13:49:08;19.38;;;9.23;;
12869;SDS011;6503;48.572;13.460;2023-03-30T14:00:48;18.08;;;8.30;;
12869;SDS011;6503;48.572;13.460;2023-03-30T14:06:28;21.52;;;8.38;;
12869;SDS011;6503;48.572;13.460;2023-03-30T14:15:41;17.77;;;11.05;;
12869;SDS011;6503;48.572;13.460;2023-03-30T14:21:32;16.38;;;8.23;;
12869;SDS011;6503;48.572;13.460;2023-03-30T14:24:40;14.63;;;8.50;;
12869;SDS011;6503;48.572;13.460;2023-03-30T14:27:46;11.55;;;7.50;;
12869;SDS011;6503;48.572;13.460;2023-03-30T14:30:27;12.38;;;7.65;;
12869;SDS011;6503;48.572;13.460;2023-03-30T14:39:41;12.93;;;6.40;;
12869;SDS011;6503;48.572;13.460;2023-03-30T14:45:29;13.82;;;6.63;;
12869;SDS011;6503;48.572;13.460;2023-03-30T14:48:01;16.13;;;6.93;;
12869;SDS011;6503;48.572;13.460;2023-03-30T14:50:29;11.63;;;5.65;;
12869;SDS011;6503;48.572;13.460;2023-03-30T14:52:56;8.80;;;4.80;;
12869;SDS011;6503;48.572;13.460;2023-03-30T14:55:28;8.07;;;4.32;;
12869;SDS011;6503;48.572;13.460;2023-03-30T14:57:56;12.23;;;4.45;;
12869;SDS011;6503;48.572;13.460;2023-03-30T15:00:23;9.30;;;4.80;;
12869;SDS011;6503;48.572;13.460;2023-03-30T15:02:51;9.50;;;4.20;;
12869;SDS011;6503;48.572;13.460;2023-03-30T15:05:20;11.45;;;4.47;;
12869;SDS011;6503;48.572;13.460;2023-03-30T15:07:49;7.60;;;4.65;;
12869;SDS011;6503;48.572;13.460;2023-03-30T15:13:06;9.32;;;5.13;;
12869;SDS011;6503;48.572;13.460;2023-03-30T15:15:34;8.13;;;4.80;;
12869;SDS011;6503;48.572;13.460;2023-03-30T15:18:02;11.13;;;5.20;;
12869;SDS011;6503;48.572;13.460;2023-03-30T15:20:31;8.70;;;5.18;;
12869;SDS011;6503;48.572;13.460;2023-03-30T15:23:00;9.57;;;4.85;;
12869;SDS011;6503;48.572;13.460;2023-03-30T15:25:29;11.13;;;4.88;;
12869;SDS011;6503;48.572;13.460;2023-03-30T15:28:00;8.88;;;4.53;;
12869;SDS011;6503;48.572;13.460;2023-03-30T15:30:35;7.95;;;4.85;;
12869;SDS011;6503;48.572;13.460;2023-03-30T15:33:04;11.65;;;4.90;;
12869;SDS011;6503;48.572;13.460;2023-03-30T15:35:41;9.55;;;4.50;;
12869;SDS011;6503;48.572;13.460;2023-03-30T15:38:15;9.02;;;4.82;;
12869;SDS011;6503;48.572;13.460;2023-03-30T15:40:45;11.00;;;5.13;;
12869;SDS011;6503;48.572;13.460;2023-03-30T15:43:18;9.73;;;5.07;;
12869;SDS011;6503;48.572;13.460;2023-03-30T15:45:50;7.82;;;4.93;;
12869;SDS011;6503;48.572;13.460;2023-03-30T15:48:19;12.25;;;5.00;;
12869;SDS011;6503;48.572;13.460;2023-03-30T15:51:02;8.45;;;4.95;;
12869;SDS011;6503;48.572;13.460;2023-03-30T15:53:33;10.25;;;4.63;;
12869;SDS011;6503;48.572;13.460;2023-03-30T15:56:04;8.25;;;4.32;;
12869;SDS011;6503;48.572;13.460;2023-03-30T15:58:36;9.00;;;4.15;;
12869;SDS011;6503;48.572;13.460;2023-03-30T16:01:19;6.97;;;4.50;;
12869;SDS011;6503;48.572;13.460;2023-03-30T16:03:52;11.38;;;5.53;;
12869;SDS011;6503;48.572;13.460;2023-03-30T16:06:36;10.27;;;4.85;;
12869;SDS011;6503;48.572;13.460;2023-03-30T16:09:14;8.63;;;4.45;;
12869;SDS011;6503;48.572;13.460;2023-03-30T16:11:41;7.85;;;4.40;;
12869;SDS011;6503;48.572;13.460;2023-03-30T16:14:15;8.80;;;4.32;;
12869;SDS011;6503;48.572;13.460;2023-03-30T16:16:59;9.13;;;4.85;;
12869;SDS011;6503;48.572;13.460;2023-03-30T16:19:31;10.35;;;4.85;;
12869;SDS011;6503;48.572;13.460;2023-03-30T16:22:02;6.85;;;4.53;;
12869;SDS011;6503;48.572;13.460;2023-03-30T16:24:29;8.75;;;4.75;;
12869;SDS011;6503;48.572;13.460;2023-03-30T16:29:40;7.32;;;4.60;;
12869;SDS011;6503;48.572;13.460;2023-03-30T16:32:10;9.13;;;5.03;;
12869;SDS011;6503;48.572;13.460;2023-03-30T16:34:51;9.20;;;4.68;;
12869;SDS011;6503;48.572;13.460;2023-03-30T16:37:26;8.10;;;4.88;;
12869;SDS011;6503;48.572;13.460;2023-03-30T16:40:15;8.23;;;5.35;;
12869;SDS011;6503;48.572;13.460;2023-03-30T16:42:45;8.20;;;3.97;;
12869;SDS011;6503;48.572;13.460;2023-03-30T16:45:22;5.88;;;3.72;;
12869;SDS011;6503;48.572;13.460;2023-03-30T16:48:03;8.50;;;4.78;;